createdAt,value
2018-06-23T00:01:09.304Z,24.73
2018-06-23T00:03:37.541Z,15.90
2018-06-23T00:06:05.928Z,24.90
2018-06-23T00:08:34.190Z,21.07
2018-06-23T00:11:02.459Z,20.97
2018-06-23T00:13:30.777Z,17.97
2018-06-23T00:15:59.072Z,17.97
2018-06-23T00:18:27.092Z,24.97
2018-06-23T00:20:55.362Z,20.43
2018-06-23T00:23:23.839Z,24.97
2018-06-23T00:25:57.522Z,21.33
2018-06-23T00:28:25.814Z,27.50
2018-06-23T00:30:54.089Z,23.10
2018-06-23T00:33:22.468Z,29.47
2018-06-23T00:35:50.896Z,20.07
2018-06-23T00:38:19.201Z,17.57
2018-06-23T00:40:47.543Z,26.33
2018-06-23T00:43:15.814Z,20.93
2018-06-23T00:45:44.096Z,23.67
2018-06-23T00:48:12.632Z,24.07
2018-06-23T00:50:40.906Z,25.90
2018-06-23T00:53:09.180Z,30.33
2018-06-23T00:55:37.450Z,23.53
2018-06-23T00:58:05.718Z,26.03
2018-06-23T01:00:37.311Z,22.13
2018-06-23T01:03:05.637Z,30.23
2018-06-23T01:05:33.697Z,27.73
2018-06-23T01:08:01.966Z,24.63
2018-06-23T01:10:30.214Z,23.20
2018-06-23T01:12:58.452Z,22.30
2018-06-23T01:15:26.722Z,31.90
2018-06-23T01:17:54.951Z,23.57
2018-06-23T01:20:23.228Z,26.37
2018-06-23T01:22:51.440Z,21.27
2018-06-23T01:25:19.704Z,28.93
2018-06-23T01:27:48.564Z,16.43
2018-06-23T01:30:16.890Z,24.87
2018-06-23T01:32:45.153Z,31.00
2018-06-23T01:35:13.447Z,24.20
2018-06-23T01:37:41.712Z,25.03
2018-06-23T01:40:09.980Z,26.37
2018-06-23T01:42:38.234Z,24.80
2018-06-23T01:45:06.508Z,31.13
2018-06-23T01:47:34.807Z,26.30
2018-06-23T01:50:03.109Z,27.87
2018-06-23T01:52:31.380Z,28.40
2018-06-23T01:54:59.698Z,31.27
2018-06-23T01:57:28.047Z,28.00
2018-06-23T01:59:56.321Z,27.00
2018-06-23T02:02:24.561Z,27.27
2018-06-23T02:04:52.815Z,25.80
2018-06-23T02:07:21.132Z,21.70
2018-06-23T02:09:49.408Z,19.80
2018-06-23T02:12:17.680Z,27.13
2018-06-23T02:14:51.311Z,25.93
2018-06-23T02:17:24.950Z,25.50
2018-06-23T02:19:58.704Z,29.40
2018-06-23T02:22:32.403Z,26.03
2018-06-23T02:25:06.059Z,26.13
2018-06-23T02:27:39.702Z,22.50
2018-06-23T02:30:13.443Z,27.40
2018-06-23T02:32:46.713Z,25.27
2018-06-23T02:35:15.023Z,28.47
2018-06-23T02:37:43.387Z,24.20
2018-06-23T02:40:11.655Z,24.17
2018-06-23T02:42:39.922Z,31.00
2018-06-23T02:45:08.184Z,24.10
2018-06-23T02:47:36.863Z,29.77
2018-06-23T02:50:05.282Z,27.37
2018-06-23T02:52:33.537Z,31.47
2018-06-23T02:55:02.021Z,31.90
2018-06-23T02:57:30.271Z,26.00
2018-06-23T02:59:58.806Z,27.43
2018-06-23T03:02:27.087Z,22.13
2018-06-23T03:04:55.508Z,22.80
2018-06-23T03:07:23.799Z,28.53
2018-06-23T03:09:52.081Z,26.80
2018-06-23T03:12:20.327Z,33.60
2018-06-23T03:14:48.584Z,25.17
2018-06-23T03:17:17.965Z,19.40
2018-06-23T03:19:50.672Z,23.23
2018-06-23T03:22:19.303Z,28.40
2018-06-23T03:24:47.527Z,21.97
2018-06-23T03:27:15.844Z,26.03
2018-06-23T03:29:44.891Z,24.47
2018-06-23T03:32:13.183Z,24.30
2018-06-23T03:34:41.472Z,27.50
2018-06-23T03:37:09.780Z,28.40
2018-06-23T03:39:38.055Z,25.43
2018-06-23T03:42:06.474Z,26.77
2018-06-23T03:44:34.788Z,21.93
2018-06-23T03:47:02.795Z,27.60
2018-06-23T03:49:31.086Z,27.03
2018-06-23T03:51:59.382Z,27.90
2018-06-23T03:54:27.681Z,28.30
2018-06-23T03:56:55.698Z,24.80
2018-06-23T03:59:23.978Z,21.23
2018-06-23T04:01:52.307Z,31.90
2018-06-23T04:04:20.554Z,36.70
2018-06-23T04:06:48.884Z,25.67
2018-06-23T04:09:17.132Z,25.77
2018-06-23T04:11:45.430Z,24.60
2018-06-23T04:14:13.708Z,24.77
2018-06-23T04:16:42.012Z,28.80
2018-06-23T04:19:10.291Z,26.17
2018-06-23T04:21:38.543Z,27.73
2018-06-23T04:24:06.816Z,25.67
2018-06-23T04:26:35.199Z,25.03
2018-06-23T04:29:03.478Z,24.43
2018-06-23T04:31:31.720Z,19.43
2018-06-23T04:34:00.031Z,22.50
2018-06-23T04:36:28.300Z,24.87
2018-06-23T04:38:56.558Z,21.83
2018-06-23T04:41:24.821Z,31.83
2018-06-23T04:43:53.087Z,19.13
2018-06-23T04:46:21.352Z,28.50
2018-06-23T04:48:49.628Z,31.87
2018-06-23T04:51:17.953Z,34.40
2018-06-23T04:53:48.187Z,26.27
2018-06-23T04:56:17.092Z,29.70
2018-06-23T04:58:45.381Z,26.33
2018-06-23T05:01:13.721Z,29.27
2018-06-23T05:03:41.975Z,22.97
2018-06-23T05:06:10.291Z,23.77
2018-06-23T05:08:39.079Z,26.27
2018-06-23T05:11:07.860Z,28.20
2018-06-23T05:13:36.184Z,29.63
2018-06-23T05:16:04.803Z,27.40
2018-06-23T05:18:33.201Z,21.60
2018-06-23T05:21:01.555Z,28.93
2018-06-23T05:23:29.978Z,30.20
2018-06-23T05:25:58.267Z,24.80
2018-06-23T05:28:26.556Z,22.77
2018-06-23T05:30:54.815Z,27.27
2018-06-23T05:33:23.667Z,28.10
2018-06-23T05:35:52.755Z,24.40
2018-06-23T05:38:21.047Z,23.43
2018-06-23T05:40:49.348Z,20.37
2018-06-23T05:43:17.632Z,28.07
2018-06-23T05:45:45.960Z,23.73
2018-06-23T05:48:14.250Z,20.57
2018-06-23T05:50:42.611Z,29.57
2018-06-23T05:53:10.919Z,26.93
2018-06-23T05:55:39.235Z,24.40
2018-06-23T05:58:07.535Z,21.77
2018-06-23T06:00:36.227Z,24.27
2018-06-23T06:03:04.548Z,19.77
2018-06-23T06:05:32.870Z,25.20
2018-06-23T06:08:00.916Z,20.47
2018-06-23T06:10:29.215Z,25.40
2018-06-23T06:12:57.548Z,21.77
2018-06-23T06:15:25.826Z,26.30
2018-06-23T06:17:54.135Z,21.77
2018-06-23T06:20:22.447Z,24.10
2018-06-23T06:22:50.729Z,23.07
2018-06-23T06:25:20.111Z,25.90
2018-06-23T06:27:48.508Z,22.20
2018-06-23T06:30:16.799Z,22.93
2018-06-23T06:32:45.117Z,17.33
2018-06-23T06:35:13.444Z,17.13
2018-06-23T06:37:41.749Z,19.40
2018-06-23T06:40:10.025Z,16.47
2018-06-23T06:42:38.347Z,19.20
2018-06-23T06:45:06.945Z,21.97
2018-06-23T06:47:35.282Z,17.20
2018-06-23T06:50:03.619Z,18.47
2018-06-23T06:52:31.946Z,23.53
2018-06-23T06:55:00.298Z,19.03
2018-06-23T06:57:28.603Z,17.03
2018-06-23T06:59:56.607Z,20.27
2018-06-23T07:02:24.903Z,25.80
2018-06-23T07:04:53.159Z,23.70
2018-06-23T07:07:21.432Z,19.77
2018-06-23T07:09:49.704Z,24.10
2018-06-23T07:12:17.984Z,18.43
2018-06-23T07:14:46.356Z,19.70
2018-06-23T07:17:14.752Z,22.50
2018-06-23T07:19:43.148Z,21.90
2018-06-23T07:22:11.448Z,21.93
2018-06-23T07:24:39.841Z,22.40
2018-06-23T07:27:07.897Z,15.77
2018-06-23T07:29:36.256Z,15.50
2018-06-23T07:32:04.668Z,18.70
2018-06-23T07:34:33.055Z,26.70
2018-06-23T07:37:00.949Z,19.33
2018-06-23T07:39:29.225Z,23.13
2018-06-23T07:41:57.527Z,28.50
2018-06-23T07:44:25.803Z,15.30
2018-06-23T07:46:54.119Z,23.87
2018-06-23T07:49:22.152Z,19.27
2018-06-23T07:51:50.446Z,15.07
2018-06-23T07:54:18.785Z,15.17
2018-06-23T07:56:47.053Z,18.23
2018-06-23T07:59:15.307Z,20.37
2018-06-23T08:01:43.692Z,22.47
2018-06-23T08:04:11.888Z,17.83
2018-06-23T08:06:40.143Z,17.50
2018-06-23T08:09:09.365Z,20.33
2018-06-23T08:11:37.735Z,20.30
2018-06-23T08:14:06.057Z,16.57
2018-06-23T08:16:34.408Z,16.10
2018-06-23T08:19:02.732Z,14.70
2018-06-23T08:21:31.000Z,20.33
2018-06-23T08:23:59.361Z,14.50
2018-06-23T08:26:27.708Z,19.47
2018-06-23T08:28:55.941Z,18.30
2018-06-23T08:31:24.278Z,16.27
2018-06-23T08:33:52.556Z,14.67
2018-06-23T08:36:20.819Z,16.20
2018-06-23T08:38:49.182Z,18.93
2018-06-23T08:41:17.698Z,13.40
2018-06-23T08:43:46.046Z,21.77
2018-06-23T08:46:14.368Z,16.17
2018-06-23T08:48:43.035Z,16.33
2018-06-23T08:51:11.555Z,18.00
2018-06-23T08:53:40.053Z,20.27
2018-06-23T08:56:08.371Z,12.10
2018-06-23T08:58:36.711Z,14.30
2018-06-23T09:01:05.065Z,16.97
2018-06-23T09:03:33.342Z,16.80
2018-06-23T09:06:01.627Z,13.33
2018-06-23T09:08:29.889Z,15.53
2018-06-23T09:10:57.897Z,21.07
2018-06-23T09:13:26.166Z,17.10
2018-06-23T09:15:54.499Z,17.53
2018-06-23T09:18:22.779Z,16.73
2018-06-23T09:20:51.031Z,18.03
2018-06-23T09:23:19.355Z,14.13
2018-06-23T09:25:47.835Z,19.00
2018-06-23T09:28:16.161Z,12.83
2018-06-23T09:30:44.477Z,16.60
2018-06-23T09:33:12.805Z,16.60
2018-06-23T09:35:41.110Z,14.40
2018-06-23T09:38:09.402Z,15.60
2018-06-23T09:40:37.654Z,12.10
2018-06-23T09:43:05.956Z,12.63
2018-06-23T09:45:34.257Z,10.03
2018-06-23T09:48:02.606Z,11.50
2018-06-23T09:50:30.846Z,11.50
2018-06-23T09:52:59.163Z,14.87
2018-06-23T09:55:27.189Z,10.87
2018-06-23T09:57:55.602Z,15.53
2018-06-23T10:00:29.291Z,11.63
2018-06-23T10:02:59.830Z,13.13
2018-06-23T10:05:28.533Z,15.03
2018-06-23T10:07:56.891Z,16.33
2018-06-23T10:10:25.141Z,12.60
2018-06-23T10:12:53.414Z,15.40
2018-06-23T10:15:21.744Z,17.77
2018-06-23T10:17:50.036Z,15.90
2018-06-23T10:20:18.264Z,17.00
2018-06-23T10:22:46.569Z,20.13
2018-06-23T10:25:14.841Z,12.73
2018-06-23T10:27:43.176Z,14.70
2018-06-23T10:30:11.443Z,17.17
2018-06-23T10:32:39.729Z,15.90
2018-06-23T10:35:08.028Z,15.73
2018-06-23T10:37:36.317Z,16.13
2018-06-23T10:40:04.654Z,10.23
2018-06-23T10:42:32.999Z,14.00
2018-06-23T10:45:01.294Z,11.97
2018-06-23T10:47:29.580Z,12.13
2018-06-23T10:49:57.883Z,15.57
2018-06-23T10:52:26.188Z,7.97
2018-06-23T10:54:54.603Z,14.03
2018-06-23T10:57:22.849Z,15.50
2018-06-23T10:59:51.168Z,10.33
2018-06-23T11:02:19.436Z,11.10
2018-06-23T11:04:47.873Z,13.80
2018-06-23T11:07:16.294Z,11.13
2018-06-23T11:09:44.613Z,10.90
2018-06-23T11:12:12.951Z,9.53
2018-06-23T11:14:41.260Z,15.83
2018-06-23T11:17:09.558Z,12.00
2018-06-23T11:19:37.835Z,12.50
2018-06-23T11:22:06.237Z,10.50
2018-06-23T11:24:34.741Z,13.87
2018-06-23T11:27:02.952Z,9.23
2018-06-23T11:29:31.248Z,9.37
2018-06-23T11:31:59.542Z,10.73
2018-06-23T11:34:27.964Z,13.60
2018-06-23T11:36:56.260Z,10.73
2018-06-23T11:39:24.613Z,13.73
2018-06-23T11:41:52.929Z,8.23
2018-06-23T11:44:27.702Z,11.00
2018-06-23T11:46:56.005Z,7.57
2018-06-23T11:49:24.283Z,10.33
2018-06-23T11:51:52.615Z,5.77
2018-06-23T11:54:20.872Z,11.93
2018-06-23T11:56:48.931Z,9.73
2018-06-23T11:59:17.215Z,9.43
2018-06-23T12:01:45.581Z,10.40
2018-06-23T12:04:20.829Z,10.00
2018-06-23T12:06:49.143Z,9.47
2018-06-23T12:09:17.538Z,9.07
2018-06-23T12:11:45.831Z,11.80
2018-06-23T12:14:14.125Z,8.10
2018-06-23T12:16:42.431Z,3.70
2018-06-23T12:19:10.463Z,3.73
2018-06-23T12:21:39.227Z,4.43
2018-06-23T12:24:07.819Z,9.43
2018-06-23T12:26:36.300Z,5.67
2018-06-23T12:29:04.604Z,7.27
2018-06-23T12:31:32.900Z,7.20
2018-06-23T12:34:01.269Z,7.23
2018-06-23T12:36:29.281Z,7.93
2018-06-23T12:38:57.532Z,11.17
2018-06-23T12:41:25.657Z,12.53
2018-06-23T12:43:54.183Z,9.87
2018-06-23T12:46:22.176Z,4.47
2018-06-23T12:48:50.544Z,7.37
2018-06-23T12:51:18.857Z,11.90
2018-06-23T12:53:47.169Z,8.37
2018-06-23T12:56:15.475Z,10.00
2018-06-23T12:58:43.810Z,10.93
2018-06-23T13:01:12.107Z,5.03
2018-06-23T13:03:40.142Z,5.53
2018-06-23T13:06:08.388Z,6.93
2018-06-23T13:08:36.745Z,4.50
2018-06-23T13:11:05.959Z,7.67
2018-06-23T13:13:34.221Z,6.87
2018-06-23T13:16:02.499Z,5.43
2018-06-23T13:18:30.804Z,8.27
2018-06-23T13:20:59.073Z,8.33
2018-06-23T13:23:27.361Z,4.77
2018-06-23T13:25:55.656Z,6.20
2018-06-23T13:28:23.947Z,7.47
2018-06-23T13:30:52.235Z,8.80
2018-06-23T13:33:20.719Z,8.67
2018-06-23T13:35:49.322Z,7.00
2018-06-23T13:38:17.888Z,10.93
2018-06-23T13:40:46.376Z,7.53
2018-06-23T13:43:14.892Z,8.07
2018-06-23T13:45:43.408Z,10.23
2018-06-23T13:48:12.058Z,12.60
2018-06-23T13:50:40.567Z,10.27
2018-06-23T13:53:09.068Z,7.53
2018-06-23T13:55:37.550Z,6.87
2018-06-23T13:58:06.222Z,7.50
2018-06-23T14:00:34.395Z,8.00
2018-06-23T14:03:02.863Z,10.77
2018-06-23T14:05:31.285Z,7.83
2018-06-23T14:07:59.811Z,10.40
2018-06-23T14:10:28.379Z,8.67
2018-06-23T14:12:56.983Z,10.63
2018-06-23T14:15:25.472Z,8.87
2018-06-23T14:17:53.997Z,6.10
2018-06-23T14:20:22.766Z,9.70
2018-06-23T14:22:51.313Z,8.50
2018-06-23T14:25:19.928Z,9.33
2018-06-23T14:27:48.431Z,11.10
2018-06-23T14:30:16.549Z,8.17
2018-06-23T14:32:45.095Z,9.97
2018-06-23T14:35:13.576Z,6.87
2018-06-23T14:37:42.136Z,7.03
2018-06-23T14:40:10.628Z,9.60
2018-06-23T14:42:39.216Z,13.63
2018-06-23T14:45:07.956Z,6.57
2018-06-23T14:47:36.582Z,8.40
2018-06-23T14:50:05.180Z,8.30
2018-06-23T14:52:33.758Z,7.33
2018-06-23T14:55:02.248Z,6.20
2018-06-23T14:57:30.784Z,9.53
2018-06-23T14:59:59.005Z,9.30
2018-06-23T15:02:27.574Z,9.13
2018-06-23T15:04:56.090Z,8.13
2018-06-23T15:07:24.666Z,9.33
2018-06-23T15:10:04.423Z,8.13
2018-06-23T15:12:44.281Z,6.40
2018-06-23T15:15:12.778Z,9.77
2018-06-23T15:17:41.372Z,8.27
2018-06-23T15:20:09.874Z,10.77
2018-06-23T15:22:38.192Z,6.07
2018-06-23T15:25:06.452Z,9.07
2018-06-23T15:27:34.766Z,11.50
2018-06-23T15:30:03.103Z,5.47
2018-06-23T15:32:31.386Z,9.23
2018-06-23T15:34:59.686Z,11.67
2018-06-23T15:37:28.046Z,6.50
2018-06-23T15:39:56.413Z,8.33
2018-06-23T15:42:24.638Z,10.50
2018-06-23T15:44:52.919Z,9.70
2018-06-23T15:47:21.287Z,6.23
2018-06-23T15:49:49.594Z,5.33
2018-06-23T15:52:17.605Z,6.83
2018-06-23T15:54:45.847Z,10.07
2018-06-23T15:57:14.118Z,6.67
2018-06-23T15:59:42.564Z,7.63
2018-06-23T16:02:10.854Z,14.57
2018-06-23T16:04:39.135Z,9.03
2018-06-23T16:07:07.523Z,4.87
2018-06-23T16:09:35.852Z,10.40
2018-06-23T16:12:04.174Z,11.57
2018-06-23T16:14:32.486Z,8.13
2018-06-23T16:17:00.827Z,12.23
2018-06-23T16:19:29.129Z,8.47
2018-06-23T16:21:57.376Z,10.10
2018-06-23T16:24:25.680Z,11.87
2018-06-23T16:26:53.968Z,7.43
2018-06-23T16:29:22.258Z,14.37
2018-06-23T16:31:50.516Z,10.43
2018-06-23T16:34:18.785Z,4.93
2018-06-23T16:36:47.084Z,7.00
2018-06-23T16:39:15.408Z,9.00
2018-06-23T16:41:44.024Z,7.67
2018-06-23T16:44:12.336Z,7.67
2018-06-23T16:46:40.673Z,12.27
2018-06-23T16:49:08.937Z,7.93
2018-06-23T16:51:36.932Z,7.73
2018-06-23T16:54:05.262Z,7.60
2018-06-23T16:56:33.544Z,8.90
2018-06-23T16:59:01.777Z,6.23
2018-06-23T17:01:30.088Z,6.13
2018-06-23T17:03:58.363Z,5.43
2018-06-23T17:06:26.674Z,7.47
2018-06-23T17:08:54.697Z,4.37
2018-06-23T17:11:23.013Z,6.07
2018-06-23T17:13:51.235Z,6.67
2018-06-23T17:16:19.530Z,4.60
2018-06-23T17:18:47.932Z,7.33
2018-06-23T17:21:16.211Z,7.17
2018-06-23T17:23:44.505Z,4.73
2018-06-23T17:26:12.822Z,7.17
2018-06-23T17:28:41.197Z,7.97
2018-06-23T17:31:09.486Z,5.07
2018-06-23T17:33:37.830Z,3.37
2018-06-23T17:36:06.079Z,4.33
2018-06-23T17:38:34.063Z,4.63
2018-06-23T17:41:02.350Z,4.67
2018-06-23T17:43:30.706Z,5.60
2018-06-23T17:45:58.736Z,10.57
2018-06-23T17:48:27.095Z,8.23
2018-06-23T17:50:55.392Z,7.50
2018-06-23T17:53:23.709Z,4.00
2018-06-23T17:55:52.099Z,7.00
2018-06-23T17:58:20.500Z,9.23
2018-06-23T18:00:48.923Z,6.40
2018-06-23T18:03:17.220Z,6.13
2018-06-23T18:05:45.547Z,7.57
2018-06-23T18:08:13.799Z,6.67
2018-06-23T18:10:42.076Z,6.33
2018-06-23T18:13:10.383Z,6.27
2018-06-23T18:15:38.672Z,7.67
2018-06-23T18:18:06.966Z,10.57
2018-06-23T18:20:35.285Z,5.07
2018-06-23T18:23:03.570Z,6.70
2018-06-23T18:25:32.062Z,7.23
2018-06-23T18:28:00.336Z,12.33
2018-06-23T18:30:28.582Z,7.13
2018-06-23T18:32:57.162Z,7.83
2018-06-23T18:35:25.717Z,9.70
2018-06-23T18:37:54.293Z,6.93
2018-06-23T18:40:22.853Z,4.60
2018-06-23T18:42:51.155Z,9.83
2018-06-23T18:45:19.457Z,6.47
2018-06-23T18:47:47.767Z,7.00
2018-06-23T18:50:16.057Z,7.70
2018-06-23T18:52:44.336Z,11.50
2018-06-23T18:55:19.167Z,9.33
2018-06-23T18:57:47.555Z,8.93
2018-06-23T19:00:15.952Z,9.10
2018-06-23T19:02:44.251Z,9.30
2018-06-23T19:05:12.583Z,6.40
2018-06-23T19:07:40.920Z,5.70
2018-06-23T19:10:09.268Z,7.23
2018-06-23T19:12:37.562Z,8.07
2018-06-23T19:15:06.244Z,5.80
2018-06-23T19:17:34.581Z,9.73
2018-06-23T19:20:02.896Z,10.47
2018-06-23T19:22:31.625Z,8.53
2018-06-23T19:24:59.938Z,11.43
2018-06-23T19:27:28.192Z,6.40
2018-06-23T19:29:56.891Z,6.97
2018-06-23T19:32:25.227Z,9.17
2018-06-23T19:34:53.528Z,14.00
2018-06-23T19:37:21.798Z,8.27
2018-06-23T19:39:50.119Z,8.13
2018-06-23T19:42:18.387Z,6.97
2018-06-23T19:44:46.715Z,10.17
2018-06-23T19:47:14.987Z,6.63
2018-06-23T19:49:43.259Z,6.93
2018-06-23T19:52:12.118Z,8.17
2018-06-23T19:54:40.171Z,6.57
2018-06-23T19:57:08.544Z,7.60
2018-06-23T19:59:36.900Z,9.80
2018-06-23T20:02:05.255Z,13.20
2018-06-23T20:04:33.613Z,14.60
2018-06-23T20:07:01.937Z,16.17
2018-06-23T20:09:30.186Z,9.43
2018-06-23T20:11:58.493Z,8.97
2018-06-23T20:14:26.765Z,10.23
2018-06-23T20:16:55.504Z,7.50
2018-06-23T20:19:23.767Z,7.00
2018-06-23T20:21:52.164Z,12.53
2018-06-23T20:24:20.407Z,9.33
2018-06-23T20:26:48.670Z,10.90
2018-06-23T20:29:16.940Z,8.57
2018-06-23T20:31:45.259Z,8.00
2018-06-23T20:34:13.258Z,6.73
2018-06-23T20:36:42.031Z,8.37
2018-06-23T20:39:11.247Z,8.20
2018-06-23T20:41:39.858Z,9.60
2018-06-23T20:44:08.145Z,7.53
2018-06-23T20:46:36.410Z,9.77
2018-06-23T20:49:04.889Z,11.03
2018-06-23T20:51:33.138Z,10.80
2018-06-23T20:54:01.561Z,9.10
2018-06-23T20:56:30.016Z,11.20
2018-06-23T20:58:58.333Z,8.30
2018-06-23T21:01:26.368Z,11.93
2018-06-23T21:03:54.938Z,10.33
2018-06-23T21:06:23.293Z,10.73
2018-06-23T21:08:51.582Z,11.70
2018-06-23T21:11:19.900Z,9.63
2018-06-23T21:13:48.218Z,9.03
2018-06-23T21:16:16.539Z,7.57
2018-06-23T21:18:44.878Z,4.47
2018-06-23T21:21:13.166Z,8.00
2018-06-23T21:23:41.473Z,7.30
2018-06-23T21:26:09.790Z,10.00
2018-06-23T21:28:38.075Z,11.30
2018-06-23T21:31:06.374Z,11.17
2018-06-23T21:33:34.744Z,7.20
2018-06-23T21:36:03.017Z,10.53
2018-06-23T21:38:31.319Z,8.03
2018-06-23T21:40:59.655Z,10.73
2018-06-23T21:43:28.043Z,11.63
2018-06-23T21:45:56.328Z,9.67
2018-06-23T21:48:25.066Z,8.73
2018-06-23T21:50:53.080Z,9.43
2018-06-23T21:53:21.358Z,8.33
2018-06-23T21:55:49.620Z,11.23
2018-06-23T21:58:17.934Z,13.60
2018-06-23T22:00:46.275Z,8.57
2018-06-23T22:03:15.427Z,8.13
2018-06-23T22:05:43.820Z,6.20
2018-06-23T22:08:12.103Z,8.90
2018-06-23T22:10:40.093Z,9.20
2018-06-23T22:13:08.404Z,11.93
2018-06-23T22:15:36.713Z,9.57
2018-06-23T22:18:05.024Z,9.33
2018-06-23T22:20:33.318Z,12.07
2018-06-23T22:23:01.617Z,10.33
2018-06-23T22:25:29.944Z,8.80
2018-06-23T22:27:58.264Z,10.13
2018-06-23T22:30:26.573Z,6.83
2018-06-23T22:32:54.856Z,7.30
2018-06-23T22:35:23.149Z,9.60
2018-06-23T22:37:51.423Z,9.93
2018-06-23T22:40:19.691Z,12.60
2018-06-23T22:42:47.687Z,9.37
2018-06-23T22:45:15.678Z,13.63
2018-06-23T22:47:43.952Z,14.17
2018-06-23T22:50:12.148Z,7.80
2018-06-23T22:52:40.449Z,9.70
2018-06-23T22:55:09.820Z,7.30
2018-06-23T22:57:38.114Z,9.10
2018-06-23T23:00:09.323Z,8.93
2018-06-23T23:02:37.564Z,8.47
2018-06-23T23:05:06.075Z,11.23
2018-06-23T23:07:34.314Z,10.40
2018-06-23T23:10:02.636Z,9.30
2018-06-23T23:12:30.955Z,10.80
2018-06-23T23:14:59.170Z,12.67
2018-06-23T23:17:27.490Z,12.07
2018-06-23T23:19:55.746Z,10.83
2018-06-23T23:22:24.039Z,11.03
2018-06-23T23:24:52.391Z,11.90
2018-06-23T23:27:20.726Z,10.73
2018-06-23T23:29:49.174Z,13.10
2018-06-23T23:32:17.734Z,12.23
2018-06-23T23:34:46.065Z,16.83
2018-06-23T23:37:14.322Z,10.13
2018-06-23T23:39:42.581Z,11.20
2018-06-23T23:42:10.839Z,10.53
2018-06-23T23:44:39.605Z,9.83
2018-06-23T23:47:07.940Z,10.53
2018-06-23T23:49:36.221Z,9.97
2018-06-23T23:52:04.489Z,12.50
2018-06-23T23:54:32.763Z,6.37
2018-06-23T23:57:01.099Z,9.47
2018-06-23T23:59:29.363Z,9.60
